Valparaiso, Chile
Current Conditions -  °F | °C
As of 4:00 PM on Saturday 20 Dec 2014 (Local Time) from SCVM Reporting Station
Overcast Overcast  
Wind Chill: 59°   Ceiling: 9000
Heat Index: 59°   Visibility: 6mi
Dew Point: 54°   Wind: 12mph
Humidity: 82%   Direction: 250°WSW
Pressure: 30.03"   Gusts: NA
Location:  33.04°S, 71.64°W
Report Text: SCVM 202000Z 25010KT 9999 OVC090 15/12 Q1017
Loading
Personal Weather Stations






























Interactive Weather Map New forecast layout! Learn more

10-Day Weather Forecast

Advertisements
Track Severe Weather on mobile